createdAt,value
2023-08-30T00:01:19.757Z,16.50
2023-08-30T00:03:47.340Z,16.70
2023-08-30T00:06:14.990Z,16.50
2023-08-30T00:08:42.461Z,16.30
2023-08-30T00:11:10.001Z,16.30
2023-08-30T00:13:37.514Z,16.90
2023-08-30T00:16:05.292Z,16.60
2023-08-30T00:18:32.877Z,18.10
2023-08-30T00:21:00.548Z,16.70
2023-08-30T00:23:28.082Z,17.20
2023-08-30T00:25:55.589Z,16.30
2023-08-30T00:28:23.128Z,15.70
2023-08-30T00:30:57.114Z,16.70
2023-08-30T00:33:24.883Z,16.60
2023-08-30T00:36:02.084Z,16.00
2023-08-30T00:38:29.982Z,17.60
2023-08-30T00:40:57.647Z,17.30
2023-08-30T00:43:26.051Z,17.80
2023-08-30T00:45:53.566Z,16.90
2023-08-30T00:48:21.522Z,17.20
2023-08-30T00:50:49.073Z,17.90
2023-08-30T00:53:16.661Z,17.80
2023-08-30T00:55:44.647Z,17.30
2023-08-30T00:58:12.801Z,17.30
2023-08-30T01:00:40.948Z,16.30
2023-08-30T01:03:11.467Z,16.60
2023-08-30T01:05:39.078Z,17.40
2023-08-30T01:08:07.222Z,17.00
2023-08-30T01:10:53.780Z,16.90
2023-08-30T01:13:21.697Z,18.00
2023-08-30T01:15:50.103Z,17.30
2023-08-30T01:18:19.217Z,18.00
2023-08-30T01:20:47.749Z,17.80
2023-08-30T01:23:18.234Z,17.80
2023-08-30T01:26:12.111Z,18.00
2023-08-30T01:28:40.407Z,17.20
2023-08-30T01:31:09.462Z,16.50
2023-08-30T01:33:37.758Z,16.70
2023-08-30T01:36:06.215Z,16.10
2023-08-30T01:38:34.295Z,16.90
2023-08-30T01:41:03.074Z,17.40
2023-08-30T01:43:31.104Z,17.70
2023-08-30T01:45:59.000Z,18.00
2023-08-30T01:48:26.692Z,17.70
2023-08-30T01:50:55.880Z,17.80
2023-08-30T01:53:23.420Z,18.30
2023-08-30T01:55:51.043Z,18.50
2023-08-30T01:58:20.255Z,18.30
2023-08-30T02:00:48.022Z,17.80
2023-08-30T02:03:15.925Z,16.50
2023-08-30T02:06:03.207Z,16.90
2023-08-30T02:08:43.135Z,16.50
2023-08-30T02:11:16.965Z,17.50
2023-08-30T02:13:44.622Z,17.20
2023-08-30T02:16:12.373Z,17.20
2023-08-30T02:18:42.949Z,17.30
2023-08-30T02:21:10.489Z,18.00
2023-08-30T02:23:38.043Z,18.00
2023-08-30T02:26:05.662Z,18.60
2023-08-30T02:28:33.382Z,17.00
2023-08-30T02:31:00.984Z,16.40
2023-08-30T02:33:28.562Z,16.40
2023-08-30T02:35:56.265Z,17.90
2023-08-30T02:38:25.372Z,16.60
2023-08-30T02:40:52.872Z,18.50
2023-08-30T02:43:20.421Z,18.20
2023-08-30T02:45:47.978Z,17.50
2023-08-30T02:48:16.106Z,18.20
2023-08-30T02:50:43.713Z,18.80
2023-08-30T02:53:11.450Z,19.20
2023-08-30T02:55:38.981Z,17.50
2023-08-30T02:58:06.723Z,16.90
2023-08-30T03:00:35.714Z,17.00
2023-08-30T03:03:03.821Z,17.30
2023-08-30T03:05:31.448Z,18.20
2023-08-30T03:07:58.987Z,18.10
2023-08-30T03:10:26.789Z,18.70
2023-08-30T03:12:54.433Z,18.80
2023-08-30T03:15:22.074Z,19.30
2023-08-30T03:17:49.634Z,19.20
2023-08-30T03:20:17.395Z,19.50
2023-08-30T03:22:44.877Z,17.50
2023-08-30T03:25:12.748Z,18.60
2023-08-30T03:27:40.800Z,19.40
2023-08-30T03:30:09.486Z,19.20
2023-08-30T03:32:38.125Z,19.80
2023-08-30T03:35:06.612Z,19.60
2023-08-30T03:37:34.216Z,19.20
2023-08-30T03:40:03.172Z,19.60
2023-08-30T03:42:30.805Z,19.20
2023-08-30T03:44:58.544Z,19.10
2023-08-30T03:47:26.268Z,19.70
2023-08-30T03:49:53.893Z,20.70
2023-08-30T03:52:21.466Z,20.50
2023-08-30T03:54:49.119Z,20.60
2023-08-30T03:57:16.654Z,20.30
2023-08-30T03:59:44.246Z,21.10
2023-08-30T04:02:12.006Z,20.50
2023-08-30T04:04:39.773Z,19.80
2023-08-30T04:07:07.303Z,19.20
2023-08-30T04:09:34.948Z,18.80
2023-08-30T04:12:02.571Z,19.20
2023-08-30T04:14:30.122Z,19.60
2023-08-30T04:16:58.718Z,20.30
2023-08-30T04:19:26.295Z,20.20
2023-08-30T04:21:53.815Z,20.70
2023-08-30T04:24:21.324Z,20.60
2023-08-30T04:26:52.823Z,20.00
2023-08-30T04:29:20.418Z,18.70
2023-08-30T04:31:47.990Z,18.90
2023-08-30T04:34:17.363Z,19.80
2023-08-30T04:36:45.686Z,19.70
2023-08-30T04:39:15.019Z,21.10
2023-08-30T04:41:43.203Z,20.40
2023-08-30T04:44:10.796Z,20.20
2023-08-30T04:46:38.366Z,21.10
2023-08-30T04:49:06.024Z,20.00
2023-08-30T04:51:34.127Z,20.30
2023-08-30T04:54:01.826Z,20.00
2023-08-30T04:56:29.369Z,18.40
2023-08-30T04:58:58.511Z,18.50
2023-08-30T05:01:26.285Z,19.90
2023-08-30T05:03:57.244Z,19.20
2023-08-30T05:06:25.203Z,19.40
2023-08-30T05:08:52.751Z,19.00
2023-08-30T05:13:42.661Z,19.30
2023-08-30T05:16:10.439Z,18.90
2023-08-30T05:18:38.235Z,18.30
2023-08-30T05:21:06.079Z,18.70
2023-08-30T05:23:33.869Z,18.50
2023-08-30T05:26:01.507Z,19.80
2023-08-30T05:28:29.110Z,19.10
2023-08-30T05:30:57.444Z,19.50
2023-08-30T05:33:32.115Z,20.90
2023-08-30T05:36:09.245Z,20.10
2023-08-30T05:38:52.555Z,20.00
2023-08-30T05:41:49.309Z,18.60
2023-08-30T05:44:17.007Z,18.80
2023-08-30T05:46:44.523Z,19.40
2023-08-30T05:49:12.588Z,19.40
2023-08-30T05:51:40.080Z,19.90
2023-08-30T05:54:08.162Z,19.80
2023-08-30T05:56:35.808Z,19.50
2023-08-30T05:59:03.372Z,20.40
2023-08-30T06:01:30.957Z,19.80
2023-08-30T06:03:58.799Z,19.90
2023-08-30T06:06:28.595Z,19.50
2023-08-30T06:11:23.724Z,16.90
2023-08-30T06:13:51.805Z,18.20
2023-08-30T06:16:19.326Z,17.10
2023-08-30T06:18:47.009Z,17.40
2023-08-30T06:21:14.539Z,17.90
2023-08-30T06:23:42.577Z,18.10
2023-08-30T06:26:10.244Z,17.30
2023-08-30T06:28:38.943Z,18.10
2023-08-30T06:31:06.682Z,17.10
2023-08-30T06:33:34.205Z,17.70
2023-08-30T06:36:01.706Z,17.20
2023-08-30T06:38:29.223Z,17.40
2023-08-30T06:40:59.393Z,16.40
2023-08-30T06:43:27.078Z,16.00
2023-08-30T06:45:54.741Z,16.90
2023-08-30T06:48:22.303Z,15.70
2023-08-30T06:50:49.797Z,15.80
2023-08-30T06:53:17.510Z,14.80
2023-08-30T06:55:45.068Z,16.50
2023-08-30T06:58:12.839Z,16.40
2023-08-30T07:00:40.358Z,16.10
2023-08-30T07:03:08.010Z,16.10
2023-08-30T07:05:35.665Z,15.60
2023-08-30T07:08:03.970Z,15.70
2023-08-30T07:10:31.533Z,15.40
2023-08-30T07:12:59.129Z,15.20
2023-08-30T07:15:26.859Z,15.80
2023-08-30T07:17:56.260Z,15.70
2023-08-30T07:20:25.014Z,15.60
2023-08-30T07:22:52.521Z,15.50
2023-08-30T07:25:20.097Z,15.90
2023-08-30T07:27:47.576Z,14.90
2023-08-30T07:30:15.496Z,14.90
2023-08-30T07:32:43.531Z,13.70
2023-08-30T07:35:13.226Z,13.80
2023-08-30T07:37:42.419Z,13.80
2023-08-30T07:40:10.950Z,13.40
2023-08-30T07:42:38.488Z,14.20
2023-08-30T07:45:07.059Z,13.60
2023-08-30T07:47:34.654Z,13.30
2023-08-30T07:50:02.310Z,12.20
2023-08-30T07:52:43.797Z,11.80
2023-08-30T07:55:14.322Z,12.00
2023-08-30T07:57:41.966Z,11.60
2023-08-30T08:00:10.481Z,11.50
2023-08-30T08:02:41.588Z,11.20
2023-08-30T08:05:09.542Z,11.30
2023-08-30T08:07:39.579Z,11.50
2023-08-30T08:10:08.318Z,10.50
2023-08-30T08:12:36.085Z,9.80
2023-08-30T08:15:04.418Z,10.00
2023-08-30T08:17:31.982Z,10.10
2023-08-30T08:19:59.647Z,9.70
2023-08-30T08:22:27.310Z,9.30
2023-08-30T08:24:57.609Z,9.50
2023-08-30T08:27:28.585Z,9.00
2023-08-30T08:29:56.170Z,10.00
2023-08-30T08:32:24.074Z,9.60
2023-08-30T08:34:51.601Z,9.00
2023-08-30T08:37:19.064Z,9.00
2023-08-30T08:39:47.773Z,9.50
2023-08-30T08:42:18.891Z,9.60
2023-08-30T08:44:52.173Z,9.00
2023-08-30T08:47:20.785Z,9.10
2023-08-30T08:49:49.080Z,8.60
2023-08-30T08:52:29.371Z,9.40
2023-08-30T08:55:00.969Z,9.10
2023-08-30T08:59:57.898Z,9.50
2023-08-30T09:02:25.553Z,9.40
2023-08-30T09:04:54.095Z,8.80
2023-08-30T09:07:21.713Z,8.90
2023-08-30T09:09:49.287Z,9.20
2023-08-30T09:12:16.765Z,10.00
2023-08-30T09:14:55.528Z,9.60
2023-08-30T09:17:23.212Z,9.50
2023-08-30T09:19:51.562Z,9.80
2023-08-30T09:22:19.318Z,9.40
2023-08-30T09:24:46.921Z,9.60
2023-08-30T09:27:14.444Z,9.80
2023-08-30T09:29:46.563Z,9.30
2023-08-30T09:32:15.133Z,9.10
2023-08-30T09:34:49.045Z,8.70
2023-08-30T09:37:23.390Z,9.10
2023-08-30T09:39:51.701Z,8.80
2023-08-30T09:42:19.412Z,8.60
2023-08-30T09:44:47.472Z,8.80
2023-08-30T09:47:16.801Z,8.70
2023-08-30T09:49:46.531Z,8.60
2023-08-30T09:52:16.102Z,8.90
2023-08-30T09:57:12.765Z,8.70
2023-08-30T09:59:40.835Z,8.40
2023-08-30T10:02:09.616Z,8.40
2023-08-30T10:04:40.341Z,8.70
2023-08-30T10:07:08.134Z,8.40
2023-08-30T10:09:35.895Z,8.20
2023-08-30T10:12:04.170Z,7.70
2023-08-30T10:14:31.849Z,8.20
2023-08-30T10:17:04.466Z,8.10
2023-08-30T10:19:32.520Z,8.20
2023-08-30T10:22:05.716Z,7.90
2023-08-30T10:24:42.286Z,7.30
2023-08-30T10:27:16.268Z,8.00
2023-08-30T10:29:43.933Z,8.10
2023-08-30T10:32:11.526Z,7.80
2023-08-30T10:34:39.090Z,7.00
2023-08-30T10:37:11.459Z,7.40
2023-08-30T10:39:40.347Z,7.20
2023-08-30T10:42:12.241Z,7.00
2023-08-30T10:45:09.898Z,6.90
2023-08-30T10:47:40.909Z,7.10
2023-08-30T10:50:11.702Z,6.90
2023-08-30T10:52:39.648Z,7.10
2023-08-30T10:55:10.671Z,7.60
2023-08-30T10:57:38.777Z,7.10
2023-08-30T11:00:10.912Z,7.10
2023-08-30T11:02:38.971Z,7.50
2023-08-30T11:05:08.087Z,7.60
2023-08-30T11:07:35.633Z,6.90
2023-08-30T11:10:05.955Z,6.50
2023-08-30T11:12:34.223Z,7.30
2023-08-30T11:15:01.889Z,6.70
2023-08-30T11:17:29.503Z,6.70
2023-08-30T11:20:09.674Z,7.00
2023-08-30T11:22:40.957Z,6.90
2023-08-30T11:25:12.617Z,7.40
2023-08-30T11:27:40.510Z,7.00
2023-08-30T11:30:09.629Z,6.60
2023-08-30T11:32:37.794Z,7.00
2023-08-30T11:35:06.209Z,6.90
2023-08-30T11:37:33.981Z,7.10
2023-08-30T11:40:02.758Z,6.80
2023-08-30T11:42:30.354Z,6.70
2023-08-30T11:45:01.217Z,6.70
2023-08-30T11:47:28.952Z,6.90
2023-08-30T11:49:58.089Z,6.90
2023-08-30T11:52:26.872Z,7.60
2023-08-30T11:54:54.841Z,6.90
2023-08-30T11:57:23.049Z,6.90
2023-08-30T11:59:52.323Z,6.30
2023-08-30T12:02:20.168Z,6.30
2023-08-30T12:04:48.439Z,6.50
2023-08-30T12:07:24.384Z,7.20
2023-08-30T12:09:52.411Z,6.00
2023-08-30T12:12:21.264Z,6.50
2023-08-30T12:14:57.275Z,6.60
2023-08-30T12:17:25.384Z,6.50
2023-08-30T12:19:57.545Z,6.40
2023-08-30T12:22:25.850Z,6.80
2023-08-30T12:24:54.511Z,6.80
2023-08-30T12:27:22.056Z,6.70
2023-08-30T12:29:49.535Z,6.20
2023-08-30T12:32:17.756Z,6.40
2023-08-30T12:34:45.394Z,6.30
2023-08-30T12:37:12.947Z,6.60
2023-08-30T12:39:40.555Z,7.10
2023-08-30T12:42:09.413Z,6.30
2023-08-30T12:44:38.024Z,6.20
2023-08-30T12:47:05.764Z,5.70
2023-08-30T12:49:34.397Z,6.50
2023-08-30T12:52:02.183Z,6.60
2023-08-30T12:54:29.708Z,6.70
2023-08-30T12:56:57.454Z,6.50
2023-08-30T12:59:25.580Z,6.30
2023-08-30T13:01:53.286Z,6.60
2023-08-30T13:04:21.566Z,6.30
2023-08-30T13:06:49.143Z,6.70
2023-08-30T13:09:16.679Z,6.90
2023-08-30T13:11:44.807Z,6.70
2023-08-30T13:14:12.311Z,6.50
2023-08-30T13:16:40.196Z,7.10
2023-08-30T13:19:07.876Z,7.60
2023-08-30T13:21:41.067Z,6.80
2023-08-30T13:24:09.025Z,7.20
2023-08-30T13:26:36.624Z,7.50
2023-08-30T13:29:04.457Z,7.10
2023-08-30T13:31:32.453Z,6.60
2023-08-30T13:34:00.377Z,7.20
2023-08-30T13:36:29.330Z,7.00
2023-08-30T13:38:57.889Z,7.80
2023-08-30T13:41:25.568Z,7.00
2023-08-30T13:43:53.047Z,7.00
2023-08-30T13:46:20.758Z,7.40
2023-08-30T13:48:49.113Z,7.10
2023-08-30T13:51:23.053Z,7.30
2023-08-30T13:53:51.609Z,6.90
2023-08-30T13:56:23.005Z,6.20
2023-08-30T13:58:50.896Z,6.90
2023-08-30T14:01:18.457Z,6.20
2023-08-30T14:03:46.118Z,6.60
2023-08-30T14:06:13.875Z,5.80
2023-08-30T14:08:41.456Z,6.50
2023-08-30T14:11:09.205Z,6.40
2023-08-30T14:13:36.725Z,7.00
2023-08-30T14:16:04.986Z,6.20
2023-08-30T14:18:33.180Z,7.00
2023-08-30T14:21:01.073Z,6.40
2023-08-30T14:23:30.204Z,6.70
2023-08-30T14:26:01.518Z,6.00
2023-08-30T14:28:29.296Z,6.50
2023-08-30T14:30:57.462Z,6.20
2023-08-30T14:33:24.983Z,6.20
2023-08-30T14:35:52.492Z,6.10
2023-08-30T14:38:20.998Z,6.00
2023-08-30T14:41:01.748Z,6.20
2023-08-30T14:43:29.421Z,6.70
2023-08-30T14:46:10.724Z,5.80
2023-08-30T14:48:40.786Z,6.40
2023-08-30T14:51:09.025Z,5.90
2023-08-30T14:53:37.137Z,5.80
2023-08-30T14:56:08.179Z,6.00
2023-08-30T14:58:37.005Z,5.80
2023-08-30T15:01:06.028Z,5.70
2023-08-30T15:03:34.090Z,6.60
2023-08-30T15:06:02.165Z,6.50
2023-08-30T15:08:30.009Z,6.30
2023-08-30T15:10:58.799Z,6.80
2023-08-30T15:13:26.556Z,6.10
2023-08-30T15:15:54.760Z,6.70
2023-08-30T15:18:22.385Z,6.40
2023-08-30T15:20:53.826Z,6.70
2023-08-30T15:23:21.513Z,6.70
2023-08-30T15:25:49.489Z,6.90
2023-08-30T15:28:17.282Z,7.30
2023-08-30T15:30:45.727Z,7.00
2023-08-30T15:33:15.329Z,7.50
2023-08-30T15:35:48.366Z,7.90
2023-08-30T15:38:16.861Z,7.70
2023-08-30T15:40:44.809Z,7.00
2023-08-30T15:43:12.713Z,7.70
2023-08-30T15:45:40.556Z,7.60
2023-08-30T15:48:08.170Z,7.30
2023-08-30T15:50:35.822Z,7.80
2023-08-30T15:53:03.485Z,8.20
2023-08-30T15:55:32.190Z,8.60
2023-08-30T15:57:59.971Z,7.90
2023-08-30T16:00:27.955Z,7.60
2023-08-30T16:02:55.815Z,7.30
2023-08-30T16:05:24.037Z,5.10
2023-08-30T16:07:51.730Z,5.20
2023-08-30T16:10:19.638Z,9.20
2023-08-30T16:12:47.521Z,13.80
2023-08-30T16:15:15.224Z,20.20
2023-08-30T16:17:42.860Z,17.30
2023-08-30T16:20:11.603Z,16.80
2023-08-30T16:22:39.509Z,9.20
2023-08-30T16:25:07.681Z,6.10
2023-08-30T16:27:35.203Z,4.50
2023-08-30T16:30:04.249Z,5.40
2023-08-30T16:32:32.581Z,4.50
2023-08-30T16:35:00.155Z,4.20
2023-08-30T16:37:27.944Z,3.80
2023-08-30T16:39:55.995Z,4.00
2023-08-30T16:42:23.640Z,3.60
2023-08-30T16:44:51.228Z,3.60
2023-08-30T16:47:18.808Z,3.40
2023-08-30T16:49:46.444Z,3.40
2023-08-30T16:52:14.025Z,4.00
2023-08-30T16:54:41.623Z,3.70
2023-08-30T16:57:09.239Z,4.00
2023-08-30T16:59:36.803Z,4.00
2023-08-30T17:02:07.859Z,3.70
2023-08-30T17:04:36.888Z,3.50
2023-08-30T17:07:05.741Z,3.30
2023-08-30T17:09:34.464Z,3.50
2023-08-30T17:12:01.950Z,3.50
2023-08-30T17:14:29.625Z,3.40
2023-08-30T17:16:59.846Z,3.50
2023-08-30T17:19:27.824Z,3.20
2023-08-30T17:21:56.926Z,3.10
2023-08-30T17:24:24.791Z,3.30
2023-08-30T17:26:54.416Z,3.40
2023-08-30T17:31:34.067Z,3.20
2023-08-30T17:34:02.390Z,3.70
2023-08-30T17:36:30.004Z,3.40
2023-08-30T17:39:06.037Z,3.40
2023-08-30T17:41:34.753Z,4.20
2023-08-30T17:44:02.578Z,8.80
2023-08-30T17:46:32.449Z,6.10
2023-08-30T17:49:00.442Z,5.90
2023-08-30T17:51:28.186Z,4.50
2023-08-30T17:53:56.008Z,4.50
2023-08-30T17:56:25.412Z,4.50
2023-08-30T17:58:53.140Z,4.60
2023-08-30T18:01:20.920Z,4.00
2023-08-30T18:03:48.702Z,4.10
2023-08-30T18:06:16.511Z,4.50
2023-08-30T18:08:45.752Z,4.30
2023-08-30T18:11:17.520Z,4.40
2023-08-30T18:13:45.602Z,4.20
2023-08-30T18:16:24.890Z,4.40
2023-08-30T18:18:54.605Z,4.20
2023-08-30T18:21:23.196Z,3.90
2023-08-30T18:24:27.935Z,3.80
2023-08-30T18:26:56.648Z,4.60
2023-08-30T18:29:26.157Z,4.50
2023-08-30T18:31:53.786Z,4.70
2023-08-30T18:34:21.597Z,4.40
2023-08-30T18:36:49.225Z,4.60
2023-08-30T18:39:18.237Z,4.30
2023-08-30T18:41:45.775Z,4.80
2023-08-30T18:44:14.372Z,4.70
2023-08-30T18:46:42.100Z,5.00
2023-08-30T18:49:09.957Z,4.40
2023-08-30T18:51:37.590Z,4.70
2023-08-30T18:54:06.043Z,4.20
2023-08-30T18:56:34.652Z,5.00
2023-08-30T18:59:02.484Z,4.60
2023-08-30T19:01:32.274Z,4.90
2023-08-30T19:04:00.067Z,5.00
2023-08-30T19:06:28.024Z,4.80
2023-08-30T19:08:56.573Z,4.80
2023-08-30T19:11:24.340Z,4.90
2023-08-30T19:13:53.636Z,4.30
2023-08-30T19:16:22.613Z,4.60
2023-08-30T19:18:50.713Z,5.20
2023-08-30T19:21:21.342Z,5.20
2023-08-30T19:23:49.504Z,5.30
2023-08-30T19:26:19.931Z,5.60
2023-08-30T19:28:48.757Z,5.90
2023-08-30T19:31:16.663Z,6.40
2023-08-30T19:33:44.467Z,6.30
2023-08-30T19:36:15.216Z,5.40
2023-08-30T19:38:42.848Z,5.80
2023-08-30T19:41:10.416Z,6.10
2023-08-30T19:43:37.970Z,6.30
2023-08-30T19:46:06.101Z,6.60
2023-08-30T19:48:33.928Z,6.50
2023-08-30T19:51:01.889Z,6.20
2023-08-30T19:53:29.802Z,6.70
2023-08-30T19:55:57.741Z,6.40
2023-08-30T19:58:25.408Z,6.10
2023-08-30T20:00:52.951Z,5.90
2023-08-30T20:03:21.464Z,6.10
2023-08-30T20:05:51.469Z,7.10
2023-08-30T20:08:19.048Z,6.20
2023-08-30T20:10:47.076Z,6.70
2023-08-30T20:13:14.865Z,6.30
2023-08-30T20:15:42.637Z,7.00
2023-08-30T20:18:11.681Z,6.20
2023-08-30T20:20:39.730Z,6.30
2023-08-30T20:23:07.663Z,6.30
2023-08-30T20:25:37.647Z,6.30
2023-08-30T20:28:05.978Z,6.20
2023-08-30T20:30:33.565Z,6.40
2023-08-30T20:33:01.144Z,6.30
2023-08-30T20:35:28.874Z,6.60
2023-08-30T20:37:57.144Z,5.70
2023-08-30T20:40:24.948Z,5.80
2023-08-30T20:42:52.523Z,5.60
2023-08-30T20:45:20.063Z,6.60
2023-08-30T20:47:47.599Z,5.90
2023-08-30T20:50:15.467Z,6.30
2023-08-30T20:52:43.132Z,6.20
2023-08-30T20:55:10.827Z,6.70
2023-08-30T20:57:38.718Z,6.60
2023-08-30T21:00:07.768Z,6.20
2023-08-30T21:02:37.124Z,6.30
2023-08-30T21:05:05.507Z,7.10
2023-08-30T21:07:33.155Z,6.40
2023-08-30T21:10:00.749Z,7.70
2023-08-30T21:12:28.436Z,6.80
2023-08-30T21:14:55.948Z,6.90
2023-08-30T21:17:23.953Z,6.40
2023-08-30T21:19:51.744Z,6.60
2023-08-30T21:22:19.320Z,6.20
2023-08-30T21:24:46.830Z,6.50
2023-08-30T21:27:14.414Z,6.50
2023-08-30T21:29:41.921Z,6.90
2023-08-30T21:32:09.440Z,6.60
2023-08-30T21:34:37.475Z,6.20
2023-08-30T21:37:05.199Z,6.60
2023-08-30T21:39:33.146Z,6.30
2023-08-30T21:42:01.542Z,6.50
2023-08-30T21:44:29.041Z,6.10
2023-08-30T21:46:56.766Z,6.70
2023-08-30T21:49:24.441Z,6.10
2023-08-30T21:51:52.085Z,6.80
2023-08-30T21:54:19.581Z,7.00
2023-08-30T21:56:47.105Z,7.90
2023-08-30T21:59:14.595Z,7.40
2023-08-30T22:01:42.488Z,6.90
2023-08-30T22:04:10.458Z,6.30
2023-08-30T22:06:38.101Z,6.60
2023-08-30T22:09:09.241Z,6.90
2023-08-30T22:11:36.995Z,7.80
2023-08-30T22:14:07.738Z,7.10
2023-08-30T22:16:35.383Z,6.70
2023-08-30T22:19:04.337Z,6.90
2023-08-30T22:21:33.702Z,8.30
2023-08-30T22:24:03.350Z,7.80
2023-08-30T22:26:31.148Z,7.60
2023-08-30T22:28:59.602Z,7.80
2023-08-30T22:31:27.198Z,8.20
2023-08-30T22:33:54.750Z,8.30
2023-08-30T22:36:22.347Z,7.70
2023-08-30T22:38:50.155Z,7.00
2023-08-30T22:41:18.276Z,6.80
2023-08-30T22:43:46.131Z,7.50
2023-08-30T22:46:13.887Z,7.80
2023-08-30T22:48:47.931Z,8.10
2023-08-30T22:51:27.855Z,7.90
2023-08-30T22:54:03.411Z,7.20
2023-08-30T22:56:31.043Z,6.70
2023-08-30T22:58:58.778Z,6.70
2023-08-30T23:01:26.462Z,6.40
2023-08-30T23:03:55.309Z,7.20
2023-08-30T23:06:23.468Z,7.60
2023-08-30T23:08:51.027Z,7.00
2023-08-30T23:11:19.016Z,6.50
2023-08-30T23:13:46.659Z,7.40
2023-08-30T23:16:14.837Z,7.00
2023-08-30T23:18:42.498Z,6.60
2023-08-30T23:21:16.887Z,6.70
2023-08-30T23:23:44.559Z,7.20
2023-08-30T23:26:12.095Z,6.20
2023-08-30T23:28:39.759Z,7.00
2023-08-30T23:31:11.240Z,6.60
2023-08-30T23:33:39.904Z,6.90
2023-08-30T23:36:07.445Z,7.20
2023-08-30T23:38:35.299Z,7.40
2023-08-30T23:41:04.047Z,7.10
2023-08-30T23:43:31.543Z,7.70
2023-08-30T23:45:59.229Z,7.30
2023-08-30T23:48:27.064Z,7.70
2023-08-30T23:50:54.913Z,7.50
2023-08-30T23:53:23.149Z,7.60
2023-08-30T23:55:52.269Z,8.80
2023-08-30T23:58:21.001Z,7.90
